createdAt,value
2023-04-29T00:01:06.290Z,8.20
2023-04-29T00:03:33.651Z,8.20
2023-04-29T00:06:01.715Z,8.30
2023-04-29T00:08:28.824Z,8.30
2023-04-29T00:10:55.747Z,8.30
2023-04-29T00:13:22.754Z,8.30
2023-04-29T00:15:50.678Z,8.30
2023-04-29T00:18:17.453Z,8.20
2023-04-29T00:20:44.679Z,9.70
2023-04-29T00:23:11.936Z,8.20
2023-04-29T00:25:39.222Z,8.20
2023-04-29T00:28:06.875Z,8.30
2023-04-29T00:30:34.702Z,8.30
2023-04-29T00:33:01.834Z,8.20
2023-04-29T00:35:28.983Z,8.20
2023-04-29T00:37:55.958Z,8.20
2023-04-29T00:40:23.146Z,8.20
2023-04-29T00:42:50.706Z,8.20
2023-04-29T00:45:17.620Z,8.10
2023-04-29T00:47:44.915Z,8.10
2023-04-29T00:50:11.975Z,8.00
2023-04-29T00:52:40.040Z,8.00
2023-04-29T00:55:09.123Z,8.00
2023-04-29T00:57:36.203Z,7.90
2023-04-29T01:00:04.173Z,7.90
2023-04-29T01:02:31.445Z,7.90
2023-04-29T01:04:58.617Z,7.80
2023-04-29T01:08:03.051Z,7.80
2023-04-29T01:10:38.706Z,7.80
2023-04-29T01:13:11.433Z,7.80
2023-04-29T01:15:52.956Z,7.80
2023-04-29T01:18:26.672Z,7.80
2023-04-29T01:20:54.075Z,7.90
2023-04-29T01:23:21.317Z,7.90
2023-04-29T01:25:49.112Z,7.90
2023-04-29T01:28:53.602Z,7.90
2023-04-29T01:31:42.020Z,8.00
2023-04-29T01:34:14.993Z,7.90
2023-04-29T01:37:05.560Z,7.90
2023-04-29T01:39:56.577Z,7.80
2023-04-29T01:42:33.798Z,7.80
2023-04-29T01:45:05.786Z,7.80
2023-04-29T01:47:34.163Z,7.70
2023-04-29T01:50:02.853Z,7.70
2023-04-29T01:52:30.028Z,7.70
2023-04-29T01:54:57.581Z,7.70
2023-04-29T01:57:24.776Z,7.60
2023-04-29T01:59:52.957Z,7.60
2023-04-29T02:02:23.690Z,7.60
2023-04-29T02:04:51.147Z,7.60
2023-04-29T02:07:18.161Z,7.50
2023-04-29T02:09:45.091Z,8.10
2023-04-29T02:12:12.003Z,7.50
2023-04-29T02:14:39.755Z,7.50
2023-04-29T02:17:07.009Z,7.40
2023-04-29T02:19:33.760Z,7.40
2023-04-29T02:22:01.054Z,7.30
2023-04-29T02:24:28.113Z,7.30
2023-04-29T02:26:55.422Z,7.30
2023-04-29T02:29:22.381Z,7.20
2023-04-29T02:31:49.462Z,7.20
2023-04-29T02:34:16.432Z,7.20
2023-04-29T02:36:43.832Z,7.20
2023-04-29T02:39:11.031Z,7.30
2023-04-29T02:41:37.962Z,7.30
2023-04-29T02:44:05.084Z,7.30
2023-04-29T02:46:33.826Z,7.40
2023-04-29T02:49:01.424Z,7.30
2023-04-29T02:51:29.229Z,7.30
2023-04-29T02:53:56.414Z,7.90
2023-04-29T02:56:23.736Z,7.10
2023-04-29T02:58:50.612Z,7.00
2023-04-29T03:01:17.601Z,7.00
2023-04-29T03:03:44.743Z,6.90
2023-04-29T03:06:12.083Z,6.90
2023-04-29T03:08:39.030Z,8.50
2023-04-29T03:11:06.768Z,6.90
2023-04-29T03:13:33.719Z,7.00
2023-04-29T03:16:01.582Z,7.00
2023-04-29T03:18:28.435Z,7.00
2023-04-29T03:20:55.632Z,7.00
2023-04-29T03:23:22.616Z,7.00
2023-04-29T03:25:50.114Z,7.00
2023-04-29T03:28:17.094Z,7.10
2023-04-29T03:30:43.887Z,6.90
2023-04-29T03:33:10.766Z,6.80
2023-04-29T03:35:37.803Z,6.90
2023-04-29T03:38:04.705Z,6.90
2023-04-29T03:40:31.525Z,7.00
2023-04-29T03:42:58.461Z,7.00
2023-04-29T03:45:25.613Z,7.00
2023-04-29T03:47:53.596Z,7.00
2023-04-29T03:50:20.577Z,7.10
2023-04-29T03:52:47.680Z,7.10
2023-04-29T03:55:14.571Z,7.20
2023-04-29T03:57:42.645Z,7.10
2023-04-29T04:00:10.357Z,7.10
2023-04-29T04:02:37.595Z,7.10
2023-04-29T04:05:05.015Z,7.10
2023-04-29T04:07:31.976Z,7.10
2023-04-29T04:09:58.975Z,7.10
2023-04-29T04:12:25.998Z,7.10
2023-04-29T04:14:53.121Z,7.10
2023-04-29T04:17:20.177Z,7.10
2023-04-29T04:19:47.006Z,7.10
2023-04-29T04:22:13.901Z,7.10
2023-04-29T04:24:40.778Z,7.10
2023-04-29T04:27:08.165Z,7.20
2023-04-29T04:29:35.065Z,7.20
2023-04-29T04:32:02.977Z,7.30
2023-04-29T04:34:29.901Z,7.30
2023-04-29T04:36:56.805Z,7.40
2023-04-29T04:39:23.965Z,7.40
2023-04-29T04:41:50.897Z,7.40
2023-04-29T04:44:17.798Z,8.30
2023-04-29T04:46:44.671Z,7.60
2023-04-29T04:49:11.467Z,7.60
2023-04-29T04:51:38.597Z,7.70
2023-04-29T04:54:05.474Z,7.80
2023-04-29T04:56:32.404Z,7.90
2023-04-29T04:58:59.288Z,7.90
2023-04-29T05:01:26.187Z,7.90
2023-04-29T05:03:53.321Z,8.00
2023-04-29T05:06:20.237Z,8.00
2023-04-29T05:08:47.204Z,8.10
2023-04-29T05:11:18.363Z,8.10
2023-04-29T05:13:45.915Z,8.10
2023-04-29T05:16:13.045Z,8.20
2023-04-29T05:18:40.081Z,8.20
2023-04-29T05:21:06.879Z,8.40
2023-04-29T05:23:33.664Z,8.40
2023-04-29T05:26:00.631Z,8.40
2023-04-29T05:28:28.352Z,8.60
2023-04-29T05:30:55.566Z,8.70
2023-04-29T05:33:22.771Z,8.80
2023-04-29T05:35:49.641Z,8.90
2023-04-29T05:38:16.422Z,9.00
2023-04-29T05:40:43.370Z,9.00
2023-04-29T05:43:10.301Z,9.10
2023-04-29T05:45:37.196Z,9.20
2023-04-29T05:48:04.290Z,9.20
2023-04-29T05:50:31.177Z,9.30
2023-04-29T05:52:58.303Z,9.40
2023-04-29T05:55:25.108Z,9.40
2023-04-29T05:57:51.844Z,9.50
2023-04-29T06:00:18.789Z,9.60
2023-04-29T06:02:57.431Z,9.60
2023-04-29T06:05:27.518Z,9.70
2023-04-29T06:07:55.151Z,9.80
2023-04-29T06:10:22.379Z,9.80
2023-04-29T06:12:51.563Z,9.80
2023-04-29T06:15:18.520Z,9.80
2023-04-29T06:17:46.112Z,9.90
2023-04-29T06:20:13.350Z,10.00
2023-04-29T06:22:40.684Z,10.00
2023-04-29T06:25:07.999Z,10.00
2023-04-29T06:27:35.149Z,10.00
2023-04-29T06:30:02.259Z,10.00
2023-04-29T06:32:29.489Z,10.00
2023-04-29T06:34:56.580Z,10.00
2023-04-29T06:37:23.448Z,10.10
2023-04-29T06:39:50.372Z,10.10
2023-04-29T06:42:18.145Z,10.30
2023-04-29T06:44:45.116Z,10.30
2023-04-29T06:47:12.292Z,10.40
2023-04-29T06:49:39.833Z,10.40
2023-04-29T06:52:07.172Z,10.50
2023-04-29T06:54:34.168Z,10.60
2023-04-29T06:57:01.239Z,10.70
2023-04-29T06:59:28.247Z,10.80
2023-04-29T07:01:55.180Z,10.80
2023-04-29T07:04:22.755Z,10.90
2023-04-29T07:06:49.990Z,10.90
2023-04-29T07:09:17.489Z,10.90
2023-04-29T07:11:44.537Z,10.90
2023-04-29T07:14:11.785Z,10.80
2023-04-29T07:16:39.349Z,10.80
2023-04-29T07:19:06.645Z,10.80
2023-04-29T07:21:33.677Z,10.80
2023-04-29T07:24:02.698Z,10.90
2023-04-29T07:26:29.600Z,11.00
2023-04-29T07:28:56.844Z,11.10
2023-04-29T07:31:24.009Z,11.20
2023-04-29T07:33:51.142Z,11.30
2023-04-29T07:36:19.243Z,11.30
2023-04-29T07:38:46.177Z,11.40
2023-04-29T07:41:13.280Z,11.40
2023-04-29T07:43:42.213Z,11.40
2023-04-29T07:46:09.540Z,11.40
2023-04-29T07:48:39.852Z,11.30
2023-04-29T07:51:06.938Z,11.20
2023-04-29T07:53:33.765Z,11.20
2023-04-29T07:56:05.981Z,11.20
2023-04-29T07:58:32.701Z,12.80
2023-04-29T08:01:07.048Z,11.10
2023-04-29T08:03:33.928Z,11.10
2023-04-29T08:06:02.503Z,11.10
2023-04-29T08:08:30.563Z,11.10
2023-04-29T08:10:57.389Z,12.30
2023-04-29T08:13:24.877Z,10.90
2023-04-29T08:15:51.861Z,10.80
2023-04-29T08:18:18.594Z,10.70
2023-04-29T08:20:47.434Z,10.60
2023-04-29T08:23:14.088Z,10.60
2023-04-29T08:25:44.217Z,10.60
2023-04-29T08:28:11.498Z,12.10
2023-04-29T08:30:41.817Z,10.60
2023-04-29T08:33:09.055Z,10.60
2023-04-29T08:35:39.168Z,10.60
2023-04-29T08:38:06.918Z,10.50
2023-04-29T08:40:41.978Z,10.50
2023-04-29T08:43:10.293Z,10.50
2023-04-29T08:45:37.851Z,10.50
2023-04-29T08:48:07.089Z,10.60
2023-04-29T08:50:43.837Z,10.50
2023-04-29T08:53:13.418Z,10.40
2023-04-29T08:55:47.645Z,10.40
2023-04-29T08:58:16.325Z,12.10
2023-04-29T09:00:44.920Z,10.40
2023-04-29T09:03:23.192Z,10.60
2023-04-29T09:05:53.902Z,10.80
2023-04-29T09:08:24.090Z,10.90
2023-04-29T09:10:54.473Z,11.00
2023-04-29T09:13:29.110Z,10.80
2023-04-29T09:15:56.692Z,10.60
2023-04-29T09:18:44.147Z,10.40
2023-04-29T09:21:22.332Z,10.10
2023-04-29T09:23:52.091Z,9.90
2023-04-29T09:26:19.854Z,9.80
2023-04-29T09:28:47.932Z,9.90
2023-04-29T09:31:14.922Z,9.80
2023-04-29T09:33:51.910Z,9.70
2023-04-29T09:36:38.534Z,9.60
2023-04-29T09:39:12.819Z,9.60
2023-04-29T09:41:40.835Z,9.50
2023-04-29T09:44:10.214Z,9.50
2023-04-29T09:46:37.703Z,9.40
2023-04-29T09:49:05.146Z,9.40
2023-04-29T09:51:32.553Z,11.10
2023-04-29T09:54:01.784Z,9.60
2023-04-29T09:56:30.832Z,9.70
2023-04-29T09:59:09.511Z,9.90
2023-04-29T10:01:36.691Z,10.10
2023-04-29T10:04:05.063Z,10.50
2023-04-29T10:06:32.255Z,10.60
2023-04-29T10:08:59.472Z,10.80
2023-04-29T10:11:27.118Z,10.70
2023-04-29T10:13:54.366Z,10.70
2023-04-29T10:16:34.523Z,10.90
2023-04-29T10:19:04.471Z,11.10
2023-04-29T10:21:32.153Z,11.20
2023-04-29T10:24:00.123Z,11.20
2023-04-29T10:26:37.735Z,11.30
2023-04-29T10:29:07.528Z,11.20
2023-04-29T10:31:36.586Z,11.10
2023-04-29T10:34:03.461Z,11.10
2023-04-29T10:36:31.569Z,11.10
2023-04-29T10:39:00.967Z,11.10
2023-04-29T10:41:33.563Z,11.20
2023-04-29T10:44:02.180Z,11.10
2023-04-29T10:46:30.560Z,11.10
2023-04-29T10:49:01.041Z,11.00
2023-04-29T10:51:33.028Z,10.90
2023-04-29T10:54:16.201Z,10.80
2023-04-29T10:56:50.345Z,10.80
2023-04-29T10:59:37.295Z,10.80
2023-04-29T11:02:04.011Z,12.50
2023-04-29T11:04:31.861Z,12.00
2023-04-29T11:07:03.151Z,11.30
2023-04-29T11:09:37.196Z,11.30
2023-04-29T11:12:06.091Z,11.20
2023-04-29T11:14:41.460Z,11.10
2023-04-29T11:17:09.921Z,11.00
2023-04-29T11:19:41.185Z,10.90
2023-04-29T11:22:25.485Z,10.70
2023-04-29T11:25:09.619Z,10.80
2023-04-29T11:27:42.450Z,11.00
2023-04-29T11:30:09.771Z,11.00
2023-04-29T11:32:41.247Z,11.00
2023-04-29T11:35:09.832Z,10.90
2023-04-29T11:37:37.160Z,10.90
2023-04-29T11:40:05.183Z,11.00
2023-04-29T11:42:54.770Z,11.10
2023-04-29T11:45:21.519Z,11.10
2023-04-29T11:47:49.490Z,11.30
2023-04-29T11:50:19.804Z,11.20
2023-04-29T11:52:48.279Z,11.30
2023-04-29T11:55:15.196Z,11.60
2023-04-29T11:57:42.091Z,11.70
2023-04-29T12:00:13.842Z,11.80
2023-04-29T12:02:45.284Z,11.60
2023-04-29T12:05:17.263Z,11.70
2023-04-29T12:07:44.858Z,11.80
2023-04-29T12:10:12.541Z,11.90
2023-04-29T12:12:44.121Z,12.10
2023-04-29T12:15:11.573Z,12.30
2023-04-29T12:17:39.202Z,12.50
2023-04-29T12:20:08.354Z,14.10
2023-04-29T12:22:35.552Z,12.60
2023-04-29T12:25:06.605Z,13.30
2023-04-29T12:27:34.548Z,12.40
2023-04-29T12:30:01.563Z,12.20
2023-04-29T12:32:28.340Z,13.80
2023-04-29T12:34:55.789Z,12.30
2023-04-29T12:37:23.710Z,12.30
2023-04-29T12:39:51.027Z,12.30
2023-04-29T12:42:18.456Z,12.30
2023-04-29T12:44:49.631Z,12.20
2023-04-29T12:47:16.957Z,11.90
2023-04-29T12:49:48.200Z,12.00
2023-04-29T12:52:15.021Z,11.90
2023-04-29T12:54:50.751Z,11.80
2023-04-29T12:57:17.658Z,11.80
2023-04-29T12:59:44.548Z,11.70
2023-04-29T13:02:12.557Z,12.80
2023-04-29T13:04:40.127Z,11.80
2023-04-29T13:07:07.464Z,12.70
2023-04-29T13:09:34.879Z,13.50
2023-04-29T13:12:02.871Z,11.80
2023-04-29T13:14:29.592Z,11.80
2023-04-29T13:16:56.488Z,11.80
2023-04-29T13:21:53.097Z,12.00
2023-04-29T13:24:20.924Z,12.00
2023-04-29T13:26:50.223Z,12.10
2023-04-29T13:29:18.450Z,12.90
2023-04-29T13:31:45.334Z,12.40
2023-04-29T13:34:12.142Z,12.10
2023-04-29T13:36:38.972Z,12.00
2023-04-29T13:39:06.848Z,12.60
2023-04-29T13:41:35.622Z,11.80
2023-04-29T13:44:03.838Z,12.30
2023-04-29T13:46:32.619Z,11.80
2023-04-29T13:54:48.021Z,11.90
2023-04-29T13:59:39.966Z,11.90
2023-04-29T14:04:34.079Z,11.90
2023-04-29T14:07:00.994Z,12.00
2023-04-29T14:09:27.682Z,12.00
2023-04-29T14:11:54.617Z,12.00
2023-04-29T14:14:21.347Z,12.00
2023-04-29T14:16:48.122Z,12.70
2023-04-29T14:19:14.917Z,12.10
2023-04-29T14:21:41.635Z,12.10
2023-04-29T14:24:08.441Z,12.10
2023-04-29T14:26:36.756Z,12.10
2023-04-29T14:29:03.485Z,12.10
2023-04-29T14:31:33.550Z,13.60
2023-04-29T14:34:00.362Z,13.20
2023-04-29T14:36:28.222Z,12.60
2023-04-29T14:38:55.230Z,12.10
2023-04-29T14:41:22.077Z,12.10
2023-04-29T14:43:48.917Z,12.00
2023-04-29T14:46:15.850Z,12.00
2023-04-29T14:48:42.604Z,12.10
2023-04-29T14:51:09.586Z,13.40
2023-04-29T14:53:36.382Z,12.00
2023-04-29T14:56:03.850Z,11.90
2023-04-29T14:58:30.881Z,11.90
2023-04-29T15:00:57.542Z,11.90
2023-04-29T15:03:24.636Z,11.80
2023-04-29T15:05:51.850Z,11.80
2023-04-29T15:08:19.636Z,13.50
2023-04-29T15:10:47.742Z,11.80
2023-04-29T15:13:14.665Z,11.90
2023-04-29T15:15:41.615Z,12.60
2023-04-29T15:18:09.049Z,12.00
2023-04-29T15:20:36.968Z,13.00
2023-04-29T15:23:05.467Z,12.10
2023-04-29T15:25:36.239Z,12.20
2023-04-29T15:28:05.975Z,12.20
2023-04-29T15:30:33.042Z,12.20
2023-04-29T15:32:59.921Z,12.60
2023-04-29T15:35:27.579Z,12.10
2023-04-29T15:37:54.353Z,12.10
2023-04-29T15:40:21.473Z,12.10
2023-04-29T15:42:48.163Z,12.10
2023-04-29T15:45:14.853Z,12.00
2023-04-29T15:47:41.593Z,12.10
2023-04-29T15:50:10.574Z,12.10
2023-04-29T15:52:37.462Z,12.20
2023-04-29T15:55:05.425Z,12.20
2023-04-29T15:57:32.338Z,12.20
2023-04-29T15:59:59.058Z,12.20
2023-04-29T16:02:25.854Z,12.20
2023-04-29T16:04:52.751Z,12.20
2023-04-29T16:07:19.483Z,12.10
2023-04-29T16:09:46.996Z,12.10
2023-04-29T16:12:14.089Z,12.10
2023-04-29T16:14:41.031Z,12.10
2023-04-29T16:17:08.364Z,12.10
2023-04-29T16:19:37.064Z,12.00
2023-04-29T16:22:04.600Z,12.00
2023-04-29T16:24:31.441Z,11.90
2023-04-29T16:26:58.888Z,11.90
2023-04-29T16:29:26.077Z,12.00
2023-04-29T16:31:53.238Z,12.00
2023-04-29T16:34:20.530Z,11.90
2023-04-29T16:36:47.551Z,12.00
2023-04-29T16:39:14.479Z,12.50
2023-04-29T16:41:41.500Z,12.20
2023-04-29T16:44:09.124Z,12.10
2023-04-29T16:46:36.232Z,12.00
2023-04-29T16:49:03.351Z,12.10
2023-04-29T16:51:30.750Z,12.10
2023-04-29T16:53:57.541Z,12.20
2023-04-29T16:56:24.335Z,12.80
2023-04-29T16:58:51.318Z,12.20
2023-04-29T17:01:20.993Z,12.20
2023-04-29T17:03:48.272Z,13.20
2023-04-29T17:06:16.427Z,12.20
2023-04-29T17:08:44.532Z,12.30
2023-04-29T17:11:11.661Z,12.30
2023-04-29T17:13:38.387Z,12.40
2023-04-29T17:16:05.607Z,12.70
2023-04-29T17:18:32.600Z,12.90
2023-04-29T17:20:59.786Z,13.40
2023-04-29T17:23:26.493Z,13.80
2023-04-29T17:25:55.625Z,14.50
2023-04-29T17:28:23.487Z,14.20
2023-04-29T17:30:51.099Z,14.30
2023-04-29T17:33:18.013Z,14.40
2023-04-29T17:35:46.398Z,14.60
2023-04-29T17:38:13.268Z,14.80
2023-04-29T17:40:40.004Z,15.40
2023-04-29T17:43:07.024Z,15.40
2023-04-29T17:45:33.886Z,15.70
2023-04-29T17:48:00.909Z,15.80
2023-04-29T17:50:28.073Z,15.70
2023-04-29T17:52:54.810Z,17.20
2023-04-29T17:55:23.332Z,16.10
2023-04-29T17:57:49.990Z,16.00
2023-04-29T18:00:17.046Z,15.90
2023-04-29T18:02:43.892Z,15.80
2023-04-29T18:05:10.718Z,15.70
2023-04-29T18:07:37.886Z,15.60
2023-04-29T18:10:06.099Z,15.40
2023-04-29T18:12:33.549Z,15.20
2023-04-29T18:15:01.953Z,15.10
2023-04-29T18:17:28.746Z,14.80
2023-04-29T18:19:56.102Z,15.20
2023-04-29T18:22:24.176Z,14.60
2023-04-29T18:24:51.050Z,14.50
2023-04-29T18:27:18.223Z,14.30
2023-04-29T18:29:45.521Z,14.20
2023-04-29T18:32:12.315Z,14.10
2023-04-29T18:34:39.126Z,14.00
2023-04-29T18:37:05.974Z,13.40
2023-04-29T18:39:33.045Z,12.70
2023-04-29T18:42:00.293Z,12.10
2023-04-29T18:44:28.135Z,11.50
2023-04-29T18:46:55.024Z,11.90
2023-04-29T18:49:22.005Z,10.90
2023-04-29T18:51:49.793Z,10.60
2023-04-29T18:54:18.588Z,10.40
2023-04-29T18:56:50.162Z,10.10
2023-04-29T18:59:19.601Z,11.70
2023-04-29T19:01:47.536Z,9.80
2023-04-29T19:04:14.630Z,9.60
2023-04-29T19:06:42.408Z,9.50
2023-04-29T19:09:09.827Z,10.70
2023-04-29T19:11:36.677Z,9.30
2023-04-29T19:14:06.349Z,9.10
2023-04-29T19:16:35.563Z,9.00
2023-04-29T19:19:04.647Z,8.90
2023-04-29T19:21:36.111Z,8.80
2023-04-29T19:24:03.248Z,8.70
2023-04-29T19:26:33.005Z,8.60
2023-04-29T19:29:02.273Z,8.60
2023-04-29T19:31:29.285Z,8.50
2023-04-29T19:33:56.663Z,8.40
2023-04-29T19:36:23.397Z,8.40
2023-04-29T19:38:50.723Z,8.30
2023-04-29T19:41:18.142Z,8.20
2023-04-29T19:43:45.085Z,8.20
2023-04-29T19:46:12.970Z,8.10
2023-04-29T19:48:40.239Z,8.10
2023-04-29T19:51:08.764Z,8.00
2023-04-29T19:53:36.918Z,7.90
2023-04-29T19:56:03.934Z,7.90
2023-04-29T19:58:31.219Z,7.90
2023-04-29T20:00:58.181Z,7.80
2023-04-29T20:03:25.643Z,7.70
2023-04-29T20:05:52.786Z,7.70
2023-04-29T20:08:19.832Z,8.20
2023-04-29T20:10:46.654Z,7.60
2023-04-29T20:13:13.345Z,8.70
2023-04-29T20:15:40.017Z,8.50
2023-04-29T20:18:06.705Z,7.50
2023-04-29T20:20:33.371Z,7.50
2023-04-29T20:23:00.682Z,7.40
2023-04-29T20:25:28.489Z,7.40
2023-04-29T20:27:55.306Z,8.70
2023-04-29T20:30:22.724Z,7.60
2023-04-29T20:32:49.467Z,7.30
2023-04-29T20:35:16.785Z,7.20
2023-04-29T20:37:43.513Z,7.20
2023-04-29T20:40:10.605Z,7.10
2023-04-29T20:42:37.542Z,7.10
2023-04-29T20:45:06.283Z,7.10
2023-04-29T20:47:35.148Z,7.10
2023-04-29T20:50:04.943Z,7.10
2023-04-29T20:52:31.764Z,7.10
2023-04-29T20:54:58.962Z,7.00
2023-04-29T20:57:25.847Z,8.00
2023-04-29T20:59:52.941Z,7.00
2023-04-29T21:02:20.392Z,7.00
2023-04-29T21:04:47.292Z,7.00
2023-04-29T21:07:14.289Z,6.90
2023-04-29T21:09:41.032Z,6.90
2023-04-29T21:12:08.261Z,7.00
2023-04-29T21:14:35.403Z,6.90
2023-04-29T21:17:02.081Z,6.90
2023-04-29T21:19:28.774Z,6.90
2023-04-29T21:21:55.674Z,6.90
2023-04-29T21:24:22.632Z,6.90
2023-04-29T21:26:50.431Z,6.80
2023-04-29T21:29:17.178Z,7.00
2023-04-29T21:31:43.906Z,6.70
2023-04-29T21:34:10.836Z,6.70
2023-04-29T21:36:37.587Z,6.70
2023-04-29T21:39:04.311Z,6.60
2023-04-29T21:41:34.976Z,8.20
2023-04-29T21:44:02.335Z,6.60
2023-04-29T21:46:30.469Z,6.60
2023-04-29T21:49:01.303Z,6.60
2023-04-29T21:51:28.968Z,5.40
2023-04-29T21:53:55.877Z,6.60
2023-04-29T21:56:24.481Z,6.60
2023-04-29T21:58:51.345Z,8.40
2023-04-29T22:01:27.649Z,6.60
2023-04-29T22:03:57.151Z,6.60
2023-04-29T22:06:24.461Z,6.60
2023-04-29T22:08:51.371Z,7.80
2023-04-29T22:11:21.898Z,6.50
2023-04-29T22:13:49.257Z,6.60
2023-04-29T22:16:16.672Z,6.50
2023-04-29T22:18:43.561Z,6.60
2023-04-29T22:21:10.455Z,6.60
2023-04-29T22:23:37.371Z,6.60
2023-04-29T22:26:04.134Z,6.50
2023-04-29T22:28:31.268Z,6.50
2023-04-29T22:31:01.371Z,6.50
2023-04-29T22:33:31.301Z,6.80
2023-04-29T22:35:58.245Z,6.40
2023-04-29T22:38:25.110Z,6.40
2023-04-29T22:40:54.606Z,6.40
2023-04-29T22:43:21.517Z,6.40
2023-04-29T22:45:55.157Z,6.40
2023-04-29T22:48:25.097Z,6.40
2023-04-29T22:50:54.836Z,6.30
2023-04-29T22:53:25.450Z,6.30
2023-04-29T22:55:59.615Z,6.30
2023-04-29T22:58:26.750Z,6.20
2023-04-29T23:00:59.154Z,6.20
2023-04-29T23:03:26.927Z,6.20
2023-04-29T23:06:00.525Z,6.20
2023-04-29T23:08:28.246Z,6.10
2023-04-29T23:10:55.043Z,6.10
2023-04-29T23:13:21.750Z,6.10
2023-04-29T23:15:48.465Z,6.10
2023-04-29T23:18:15.531Z,7.30
2023-04-29T23:20:46.141Z,6.40
2023-04-29T23:23:12.834Z,6.00
2023-04-29T23:25:39.582Z,6.70
2023-04-29T23:28:06.852Z,6.00
2023-04-29T23:30:33.559Z,5.90
2023-04-29T23:33:00.331Z,5.90
2023-04-29T23:35:27.302Z,7.50
2023-04-29T23:37:54.043Z,5.90
2023-04-29T23:40:20.841Z,5.90
2023-04-29T23:42:47.544Z,5.90
2023-04-29T23:45:14.343Z,5.90
2023-04-29T23:47:41.358Z,5.90
2023-04-29T23:50:08.738Z,5.80
2023-04-29T23:52:35.669Z,5.90
2023-04-29T23:55:03.086Z,6.60
2023-04-29T23:57:29.906Z,5.80
2023-04-29T23:59:56.862Z,5.70
